Time;durP1;ratioP1;P1;durP2;ratioP2;P2;SDS_P1;SDS_P2;PMS_P1;PMS_P2;Temp;Humidity;BMP_temperature;BMP_pressure;BME280_temperature;BME280_humidity;BME280_pressure;Samples;Min_cycle;Max_cycle;Signal;HPM_P1;HPM_P2
2024/01/21 00:00:15;;;;;;;3.90;1.17;;;;;;;;;;5079471;28;20056;-84
2024/01/21 00:02:47;;;;;;;5.47;1.08;;;;;;;;;;5073299;28;20055;-84
2024/01/21 00:05:17;;;;;;;10.95;1.92;;;;;;;;;;5070828;28;20501;-85
2024/01/21 00:07:48;;;;;;;5.75;1.42;;;;;;;;;;5058649;28;20165;-84
2024/01/21 00:10:17;;;;;;;4.18;1.40;;;;;;;;;;5086615;28;20044;-84
2024/01/21 00:12:48;;;;;;;4.13;1.27;;;;;;;;;;5087096;28;20078;-84
2024/01/21 00:15:19;;;;;;;4.55;1.83;;;;;;;;;;5058398;28;20376;-85
2024/01/21 00:17:50;;;;;;;4.32;1.45;;;;;;;;;;5057892;28;20060;-84
2024/01/21 00:20:21;;;;;;;3.92;1.00;;;;;;;;;;5074666;28;20414;-83
2024/01/21 00:22:51;;;;;;;6.60;1.77;;;;;;;;;;5074719;28;20048;-84
2024/01/21 00:25:22;;;;;;;4.95;1.30;;;;;;;;;;5058458;28;20048;-84
2024/01/21 00:27:52;;;;;;;3.53;1.02;;;;;;;;;;5074499;28;20048;-84
2024/01/21 00:30:23;;;;;;;3.95;1.10;;;;;;;;;;5074782;28;20048;-84
2024/01/21 00:32:53;;;;;;;3.42;1.33;;;;;;;;;;5057713;28;20402;-84
2024/01/21 00:35:23;;;;;;;3.58;0.98;;;;;;;;;;5057585;28;20056;-85
2024/01/21 00:37:53;;;;;;;5.75;1.27;;;;;;;;;;5057991;28;20051;-84
2024/01/21 00:40:23;;;;;;;7.00;1.42;;;;;;;;;;5074299;28;20048;-84
2024/01/21 00:42:58;;;;;;;4.97;1.38;;;;;;;;;;5077955;28;20047;-85
2024/01/21 00:45:29;;;;;;;5.03;1.38;;;;;;;;;;5078096;28;20055;-84
2024/01/21 00:48:01;;;;;;;3.00;1.30;;;;;;;;;;5110916;28;20375;-84
2024/01/21 00:50:32;;;;;;;5.35;1.52;;;;;;;;;;5094702;28;20052;-85
2024/01/21 00:53:03;;;;;;;5.47;1.50;;;;;;;;;;5095155;28;20060;-86
2024/01/21 00:55:33;;;;;;;5.03;1.23;;;;;;;;;;5111511;28;20051;-86
2024/01/21 00:58:04;;;;;;;4.85;1.50;;;;;;;;;;5093989;28;20493;-84
2024/01/21 01:00:34;;;;;;;6.30;1.17;;;;;;;;;;5109021;28;20070;-85
2024/01/21 01:03:05;;;;;;;5.97;1.42;;;;;;;;;;5093635;28;20509;-87
2024/01/21 01:05:37;;;;;;;4.35;1.20;;;;;;;;;;5093652;28;20043;-86
2024/01/21 01:08:08;;;;;;;;;;;;;;;;;;5094508;28;20043;-86
2024/01/21 01:10:38;;;;;;;4.90;1.33;;;;;;;;;;5094631;28;20015;-88
2024/01/21 01:13:08;;;;;;;4.47;1.00;;;;;;;;;;5067940;28;20502;-86
2024/01/21 01:15:39;;;;;;;8.40;1.50;;;;;;;;;;5069412;28;20491;-85
2024/01/21 01:18:11;;;;;;;3.63;1.50;;;;;;;;;;5071878;28;20048;-85
2024/01/21 01:20:42;;;;;;;7.93;1.38;;;;;;;;;;5071699;28;20064;-85
2024/01/21 01:23:14;;;;;;;7.95;1.35;;;;;;;;;;5053376;28;20056;-85
2024/01/21 01:25:45;;;;;;;9.40;1.17;;;;;;;;;;5071825;28;20060;-86
2024/01/21 01:28:15;;;;;;;6.45;1.30;;;;;;;;;;5072200;28;20601;-86
2024/01/21 01:30:46;;;;;;;4.30;1.20;;;;;;;;;;5070474;28;20052;-85
2024/01/21 01:33:17;;;;;;;4.28;1.73;;;;;;;;;;5070914;28;20482;-85
2024/01/21 01:35:47;;;;;;;5.43;1.20;;;;;;;;;;5069757;28;20060;-86
2024/01/21 01:38:18;;;;;;;2.67;1.30;;;;;;;;;;5071524;28;20045;-84
2024/01/21 01:40:48;;;;;;;8.93;1.63;;;;;;;;;;5071350;28;20065;-85
2024/01/21 01:43:18;;;;;;;5.45;1.10;;;;;;;;;;5085195;28;20509;-86
2024/01/21 01:45:49;;;;;;;7.43;1.05;;;;;;;;;;5076788;28;20052;-86
2024/01/21 01:48:22;;;;;;;5.03;1.52;;;;;;;;;;5093002;28;20493;-87
2024/01/21 01:50:56;;;;;;;6.22;1.08;;;;;;;;;;5111726;28;20055;-86
2024/01/21 01:53:29;;;;;;;3.17;1.15;;;;;;;;;;5083576;28;20156;-85
2024/01/21 01:55:59;;;;;;;4.00;1.00;;;;;;;;;;5074760;28;20044;-83
2024/01/21 01:58:30;;;;;;;3.53;1.23;;;;;;;;;;5093865;28;20040;-84
2024/01/21 02:01:01;;;;;;;6.85;1.70;;;;;;;;;;5074996;28;20059;-87
2024/01/21 02:03:33;;;;;;;4.93;1.45;;;;;;;;;;5075356;28;20052;-86
2024/01/21 02:06:03;;;;;;;5.45;1.25;;;;;;;;;;5093901;28;20055;-84
2024/01/21 02:08:33;;;;;;;2.03;1.20;;;;;;;;;;5094056;28;20044;-85
2024/01/21 02:11:08;;;;;;;5.68;1.38;;;;;;;;;;5075104;28;20044;-85
2024/01/21 02:13:38;;;;;;;6.80;1.30;;;;;;;;;;5073777;28;20047;-84
2024/01/21 02:16:09;;;;;;;6.03;1.20;;;;;;;;;;5092489;28;20059;-85
2024/01/21 02:18:41;;;;;;;3.70;1.13;;;;;;;;;;5075897;28;20394;-85
2024/01/21 02:21:13;;;;;;;7.43;1.67;;;;;;;;;;5075597;28;20044;-87
2024/01/21 02:23:44;;;;;;;9.82;1.20;;;;;;;;;;5074953;28;20533;-84
2024/01/21 02:26:26;;;;;;;3.03;1.20;;;;;;;;;;5072787;28;20072;-86
2024/01/21 02:28:58;;;;;;;6.68;1.55;;;;;;;;;;5072515;28;20045;-87
2024/01/21 02:31:30;;;;;;;5.57;1.38;;;;;;;;;;5039565;28;20049;-87
2024/01/21 02:34:00;;;;;;;10.52;1.58;;;;;;;;;;5056139;28;20061;-84
2024/01/21 02:36:31;;;;;;;7.63;1.25;;;;;;;;;;5054563;28;20507;-84
2024/01/21 02:39:01;;;;;;;7.53;1.58;;;;;;;;;;5071764;28;20048;-84
2024/01/21 02:41:32;;;;;;;6.60;1.23;;;;;;;;;;5055532;28;20061;-85
2024/01/21 02:44:04;;;;;;;3.22;0.90;;;;;;;;;;5054238;28;20053;-84
2024/01/21 02:46:35;;;;;;;9.55;1.58;;;;;;;;;;5054773;28;20052;-84
2024/01/21 02:49:05;;;;;;;9.48;1.20;;;;;;;;;;5054636;28;20056;-84
2024/01/21 02:51:37;;;;;;;5.47;1.25;;;;;;;;;;5056195;28;20079;-86
2024/01/21 02:54:08;;;;;;;5.15;1.38;;;;;;;;;;5071733;28;20211;-83
2024/01/21 02:56:39;;;;;;;7.75;1.30;;;;;;;;;;5059262;28;20395;-84
2024/01/21 02:59:10;;;;;;;4.95;1.02;;;;;;;;;;5094021;28;20048;-85
2024/01/21 03:01:42;;;;;;;4.63;1.05;;;;;;;;;;5058134;28;20407;-84
2024/01/21 03:04:13;;;;;;;7.00;1.65;;;;;;;;;;5093458;28;20044;-86
2024/01/21 03:06:44;;;;;;;7.70;1.63;;;;;;;;;;5075236;28;20052;-84
2024/01/21 03:09:14;;;;;;;3.97;1.50;;;;;;;;;;5094773;28;20048;-84
2024/01/21 03:11:45;;;;;;;6.03;1.60;;;;;;;;;;5093439;28;20043;-84
2024/01/21 03:14:15;;;;;;;8.10;1.60;;;;;;;;;;5093457;28;20048;-85
2024/01/21 03:16:45;;;;;;;6.00;1.48;;;;;;;;;;5093602;28;20040;-86
2024/01/21 03:19:15;;;;;;;7.72;1.20;;;;;;;;;;5093301;28;20043;-85
2024/01/21 03:21:46;;;;;;;4.95;1.77;;;;;;;;;;5092901;28;20402;-84
2024/01/21 03:24:16;;;;;;;5.07;1.33;;;;;;;;;;5073931;28;20052;-84
2024/01/21 03:26:47;;;;;;;7.03;1.50;;;;;;;;;;5076456;28;20059;-86
2024/01/21 03:29:18;;;;;;;6.85;1.38;;;;;;;;;;5096698;28;20052;-84
2024/01/21 03:31:52;;;;;;;3.35;1.30;;;;;;;;;;5079244;28;20044;-86
2024/01/21 03:34:23;;;;;;;12.18;2.17;;;;;;;;;;5096449;28;20044;-85
2024/01/21 03:36:53;;;;;;;4.28;1.60;;;;;;;;;;5096566;28;20040;-84
2024/01/21 03:39:24;;;;;;;7.88;1.00;;;;;;;;;;5077712;28;20060;-84
2024/01/21 03:41:54;;;;;;;4.75;1.25;;;;;;;;;;5097320;28;20040;-85
2024/01/21 03:44:24;;;;;;;8.70;1.30;;;;;;;;;;5095934;28;20044;-86
2024/01/21 03:46:55;;;;;;;6.68;1.10;;;;;;;;;;5094590;28;20482;-85
2024/01/21 03:49:25;;;;;;;6.05;1.30;;;;;;;;;;5079005;28;20044;-86
2024/01/21 03:51:55;;;;;;;5.30;1.10;;;;;;;;;;5078141;28;20048;-86
2024/01/21 03:54:26;;;;;;;10.90;1.55;;;;;;;;;;5096238;28;20048;-85
2024/01/21 03:56:56;;;;;;;5.18;1.30;;;;;;;;;;5078390;28;20047;-85
2024/01/21 03:59:27;;;;;;;5.68;1.33;;;;;;;;;;5095834;28;20043;-86
2024/01/21 04:01:57;;;;;;;6.47;1.27;;;;;;;;;;5084372;28;20049;-84
2024/01/21 04:04:28;;;;;;;7.28;2.22;;;;;;;;;;5057327;28;20059;-86
2024/01/21 04:06:59;;;;;;;6.43;1.13;;;;;;;;;;5058028;28;20070;-85
2024/01/21 04:09:29;;;;;;;4.25;1.00;;;;;;;;;;5075663;28;20060;-83
2024/01/21 04:11:59;;;;;;;4.78;1.20;;;;;;;;;;5075277;28;20044;-85
2024/01/21 04:14:29;;;;;;;4.65;1.10;;;;;;;;;;5074584;28;20049;-84
2024/01/21 04:16:59;;;;;;;5.22;1.20;;;;;;;;;;5075101;28;20515;-84
2024/01/21 04:19:31;;;;;;;6.55;1.52;;;;;;;;;;5076117;28;20047;-84
2024/01/21 04:22:01;;;;;;;4.28;1.10;;;;;;;;;;5058384;28;20055;-84
2024/01/21 04:24:31;;;;;;;5.35;1.38;;;;;;;;;;5059349;28;20474;-84
2024/01/21 04:27:01;;;;;;;3.65;1.20;;;;;;;;;;5058570;28;20044;-86
2024/01/21 04:29:31;;;;;;;7.22;1.45;;;;;;;;;;5056147;28;20060;-86
2024/01/21 04:32:02;;;;;;;5.10;1.10;;;;;;;;;;5075547;28;20060;-87
2024/01/21 04:34:34;;;;;;;8.63;1.42;;;;;;;;;;5058038;28;20405;-86
2024/01/21 04:37:04;;;;;;;4.15;1.45;;;;;;;;;;5074317;28;20047;-85
2024/01/21 04:39:34;;;;;;;4.45;1.50;;;;;;;;;;5075232;28;20049;-87
2024/01/21 04:42:04;;;;;;;6.75;1.50;;;;;;;;;;5074775;28;20403;-85
2024/01/21 04:44:34;;;;;;;5.50;1.58;;;;;;;;;;5075204;28;20051;-84
2024/01/21 04:47:04;;;;;;;4.93;1.38;;;;;;;;;;5039971;28;20075;-84
2024/01/21 04:49:34;;;;;;;4.78;1.20;;;;;;;;;;5055956;28;20501;-84
2024/01/21 04:52:05;;;;;;;3.67;1.30;;;;;;;;;;5040130;28;20059;-85
2024/01/21 04:54:35;;;;;;;5.47;1.20;;;;;;;;;;5035871;28;20053;-84
2024/01/21 04:57:06;;;;;;;6.07;1.25;;;;;;;;;;5036719;28;20044;-85
2024/01/21 04:59:36;;;;;;;6.90;1.45;;;;;;;;;;5054039;28;20037;-85
2024/01/21 05:02:08;;;;;;;9.32;1.42;;;;;;;;;;5063382;28;20056;-85
2024/01/21 05:04:38;;;;;;;3.45;1.60;;;;;;;;;;5040567;28;20055;-84
2024/01/21 05:07:08;;;;;;;8.55;1.80;;;;;;;;;;5055918;28;20059;-85
2024/01/21 05:09:38;;;;;;;4.22;1.52;;;;;;;;;;5073454;28;20044;-85
2024/01/21 05:12:08;;;;;;;5.75;1.33;;;;;;;;;;5074603;28;20052;-84
2024/01/21 05:14:39;;;;;;;3.50;1.40;;;;;;;;;;5055839;28;20055;-84
2024/01/21 05:17:08;;;;;;;5.07;1.50;;;;;;;;;;5074264;28;20048;-84
2024/01/21 05:19:38;;;;;;;4.10;1.25;;;;;;;;;;5075560;28;20455;-84
2024/01/21 05:22:08;;;;;;;16.33;1.95;;;;;;;;;;5074090;28;20048;-86
2024/01/21 05:24:38;;;;;;;6.82;1.42;;;;;;;;;;5072992;28;20051;-85
2024/01/21 05:27:09;;;;;;;5.20;1.25;;;;;;;;;;5074739;28;20074;-85
2024/01/21 05:29:43;;;;;;;8.93;1.33;;;;;;;;;;5056149;28;20059;-86
2024/01/21 05:32:13;;;;;;;2.85;1.13;;;;;;;;;;5072898;28;20522;-84
2024/01/21 05:34:46;;;;;;;7.72;1.80;;;;;;;;;;5074630;28;20048;-84
2024/01/21 05:37:16;;;;;;;6.93;1.50;;;;;;;;;;5056676;28;20506;-84
2024/01/21 05:39:47;;;;;;;8.50;1.60;;;;;;;;;;5056631;28;20112;-84
2024/01/21 05:42:17;;;;;;;6.10;1.52;;;;;;;;;;5074506;28;20514;-84
2024/01/21 05:44:47;;;;;;;4.53;1.88;;;;;;;;;;5072456;28;20060;-84
2024/01/21 05:47:16;;;;;;;7.68;1.63;;;;;;;;;;5086102;28;20044;-83
2024/01/21 05:49:47;;;;;;;5.32;1.50;;;;;;;;;;5093415;28;20051;-82
2024/01/21 05:52:18;;;;;;;3.60;1.52;;;;;;;;;;5076621;28;20048;-83
2024/01/21 05:54:50;;;;;;;4.78;1.63;;;;;;;;;;5092987;28;20049;-83
2024/01/21 05:57:20;;;;;;;3.80;1.40;;;;;;;;;;5076426;28;20051;-84
2024/01/21 05:59:50;;;;;;;10.70;2.17;;;;;;;;;;5056113;28;20059;-84
2024/01/21 06:02:20;;;;;;;6.30;1.60;;;;;;;;;;5055861;28;20071;-85
2024/01/21 06:04:50;;;;;;;5.45;1.50;;;;;;;;;;5055411;28;20053;-84
2024/01/21 06:07:22;;;;;;;9.25;1.60;;;;;;;;;;5054525;28;20084;-84
2024/01/21 06:09:53;;;;;;;8.98;2.25;;;;;;;;;;5073421;28;20048;-84
2024/01/21 06:12:23;;;;;;;6.72;1.33;;;;;;;;;;5073042;28;20044;-84
2024/01/21 06:14:54;;;;;;;5.32;1.45;;;;;;;;;;5073429;28;20491;-84
2024/01/21 06:17:24;;;;;;;11.13;1.67;;;;;;;;;;5075452;28;20052;-84
2024/01/21 06:19:55;;;;;;;4.60;1.50;;;;;;;;;;5109015;28;20043;-85
2024/01/21 06:22:25;;;;;;;5.32;1.88;;;;;;;;;;5096036;28;20043;-85
2024/01/21 06:24:55;;;;;;;6.68;1.70;;;;;;;;;;5087703;28;20063;-84
2024/01/21 06:27:25;;;;;;;8.95;2.28;;;;;;;;;;5059192;28;20048;-85
2024/01/21 06:29:55;;;;;;;6.88;1.52;;;;;;;;;;5093424;28;20070;-83
2024/01/21 06:32:25;;;;;;;6.97;1.83;;;;;;;;;;5093733;28;20040;-83
2024/01/21 06:34:55;;;;;;;6.13;1.70;;;;;;;;;;5093487;28;20044;-84
2024/01/21 06:37:25;;;;;;;7.78;1.58;;;;;;;;;;5076049;28;20047;-83
2024/01/21 06:39:56;;;;;;;5.88;1.70;;;;;;;;;;5103907;28;20044;-83
2024/01/21 06:42:33;;;;;;;6.43;1.92;;;;;;;;;;5088882;28;20075;-85
2024/01/21 06:45:06;;;;;;;10.10;1.90;;;;;;;;;;5105981;28;20043;-84
2024/01/21 06:47:37;;;;;;;6.88;1.85;;;;;;;;;;5101141;28;20040;-85
2024/01/21 06:50:11;;;;;;;10.88;1.70;;;;;;;;;;5093329;28;20040;-85
2024/01/21 06:52:46;;;;;;;10.90;2.35;;;;;;;;;;5075133;28;20048;-84
2024/01/21 06:55:17;;;;;;;7.75;1.95;;;;;;;;;;5076544;28;20041;-85
2024/01/21 06:57:47;;;;;;;7.63;2.20;;;;;;;;;;5075609;28;20052;-84
2024/01/21 07:00:19;;;;;;;4.78;1.67;;;;;;;;;;5093461;28;20055;-84
2024/01/21 07:02:49;;;;;;;6.65;1.48;;;;;;;;;;5062650;28;20482;-85
2024/01/21 07:05:20;;;;;;;7.90;1.90;;;;;;;;;;5062435;28;20044;-84
2024/01/21 07:07:51;;;;;;;4.35;1.70;;;;;;;;;;5096896;28;20059;-84
2024/01/21 07:10:21;;;;;;;3.60;1.75;;;;;;;;;;5097064;28;20047;-84
2024/01/21 07:12:52;;;;;;;5.28;1.80;;;;;;;;;;5096945;28;20051;-84
2024/01/21 07:15:25;;;;;;;4.65;2.15;;;;;;;;;;5096667;28;20048;-84
2024/01/21 07:17:55;;;;;;;6.65;2.28;;;;;;;;;;5062778;28;20048;-84
2024/01/21 07:20:25;;;;;;;8.07;2.63;;;;;;;;;;5097179;28;20494;-84
2024/01/21 07:22:56;;;;;;;5.72;2.30;;;;;;;;;;5079244;28;20048;-84
2024/01/21 07:25:26;;;;;;;8.07;2.78;;;;;;;;;;5096744;28;20056;-84
2024/01/21 07:27:56;;;;;;;17.65;3.13;;;;;;;;;;5078693;28;20044;-84
2024/01/21 07:30:26;;;;;;;15.23;3.60;;;;;;;;;;5078605;28;20051;-84
2024/01/21 07:32:57;;;;;;;12.65;3.65;;;;;;;;;;5096624;28;20394;-83
2024/01/21 07:35:31;;;;;;;7.38;2.80;;;;;;;;;;5078455;28;20056;-83
2024/01/21 07:38:02;;;;;;;5.63;2.80;;;;;;;;;;5096065;28;20052;-84
2024/01/21 07:40:31;;;;;;;9.43;2.72;;;;;;;;;;5078298;28;20398;-84
2024/01/21 07:43:02;;;;;;;8.90;3.10;;;;;;;;;;5096403;28;20052;-84
2024/01/21 07:45:34;;;;;;;15.02;3.47;;;;;;;;;;5061027;28;20055;-84
2024/01/21 07:48:04;;;;;;;15.85;3.28;;;;;;;;;;5095985;28;20040;-84
2024/01/21 07:50:35;;;;;;;12.10;3.72;;;;;;;;;;5077607;28;20490;-85
2024/01/21 07:53:05;;;;;;;8.23;3.47;;;;;;;;;;5078898;28;20506;-84
2024/01/21 07:55:37;;;;;;;8.85;2.97;;;;;;;;;;5096499;28;20051;-84
2024/01/21 07:58:08;;;;;;;7.95;3.65;;;;;;;;;;5077306;28;20371;-84
2024/01/21 08:00:38;;;;;;;11.05;4.05;;;;;;;;;;5095823;28;20406;-84
2024/01/21 08:03:08;;;;;;;12.07;3.80;;;;;;;;;;5077676;28;20398;-84
2024/01/21 08:05:38;;;;;;;11.63;3.70;;;;;;;;;;5095487;28;20467;-84
2024/01/21 08:08:08;;;;;;;12.43;3.63;;;;;;;;;;5060935;28;20052;-84
2024/01/21 08:10:39;;;;;;;10.52;3.58;;;;;;;;;;5095955;28;20475;-84
2024/01/21 08:13:10;;;;;;;8.55;3.42;;;;;;;;;;5094612;28;20048;-84
2024/01/21 08:15:41;;;;;;;12.35;3.47;;;;;;;;;;5095513;28;20044;-84
2024/01/21 08:18:13;;;;;;;10.60;3.88;;;;;;;;;;5096131;28;20402;-84
2024/01/21 08:20:44;;;;;;;14.00;4.95;;;;;;;;;;5061019;28;20048;-84
2024/01/21 08:23:16;;;;;;;11.60;3.65;;;;;;;;;;5077076;28;20533;-84
2024/01/21 08:25:47;;;;;;;13.20;3.65;;;;;;;;;;5095221;28;20114;-84
2024/01/21 08:28:17;;;;;;;10.77;3.47;;;;;;;;;;5095469;28;20044;-84
2024/01/21 08:30:47;;;;;;;8.77;3.03;;;;;;;;;;5077509;28;20048;-83
2024/01/21 08:33:19;;;;;;;12.40;3.42;;;;;;;;;;5078647;28;20055;-83
2024/01/21 08:35:50;;;;;;;15.23;3.30;;;;;;;;;;5078163;28;20044;-82
2024/01/21 08:38:21;;;;;;;14.68;3.63;;;;;;;;;;5076940;28;20523;-84
2024/01/21 08:40:51;;;;;;;9.98;3.13;;;;;;;;;;5095264;28;20051;-83
2024/01/21 08:43:23;;;;;;;12.25;3.35;;;;;;;;;;5095670;28;20379;-83
2024/01/21 08:45:53;;;;;;;15.75;3.45;;;;;;;;;;5095321;28;20047;-83
2024/01/21 08:48:25;;;;;;;17.15;3.90;;;;;;;;;;5059883;28;20051;-83
2024/01/21 08:50:58;;;;;;;8.90;3.72;;;;;;;;;;5059136;28;20048;-84
2024/01/21 08:53:28;;;;;;;16.55;4.85;;;;;;;;;;5094716;28;20087;-85
2024/01/21 08:55:58;;;;;;;8.13;3.47;;;;;;;;;;5059944;28;20502;-84
2024/01/21 08:58:28;;;;;;;7.00;3.05;;;;;;;;;;5094966;28;20517;-85
2024/01/21 09:00:58;;;;;;;13.57;3.33;;;;;;;;;;5076699;28;20059;-83
2024/01/21 09:03:30;;;;;;;14.23;4.15;;;;;;;;;;5093894;28;20051;-82
2024/01/21 09:06:04;;;;;;;15.48;5.05;;;;;;;;;;5095090;28;20055;-83
2024/01/21 09:08:35;;;;;;;15.52;4.55;;;;;;;;;;5094652;28;20044;-84
2024/01/21 09:11:05;;;;;;;14.88;3.88;;;;;;;;;;5094613;28;20383;-84
2024/01/21 09:13:35;;;;;;;20.33;4.68;;;;;;;;;;5075192;28;20048;-84
2024/01/21 09:16:06;;;;;;;20.52;4.75;;;;;;;;;;5094145;28;20395;-84
2024/01/21 09:18:36;;;;;;;21.77;6.15;;;;;;;;;;5076752;28;20070;-84
2024/01/21 09:21:06;;;;;;;50.08;10.55;;;;;;;;;;5094027;28;20036;-84
2024/01/21 09:23:54;;;;;;;26.13;7.80;;;;;;;;;;5061623;28;20047;-84
2024/01/21 09:26:24;;;;;;;27.73;7.55;;;;;;;;;;5094658;28;20390;-84
2024/01/21 09:28:56;;;;;;;30.58;8.38;;;;;;;;;;5093050;28;20051;-84
2024/01/21 09:31:26;;;;;;;31.55;8.73;;;;;;;;;;5075703;28;20055;-83
2024/01/21 09:33:58;;;;;;;37.25;9.23;;;;;;;;;;5094504;28;20501;-84
2024/01/21 09:36:29;;;;;;;43.53;11.15;;;;;;;;;;5076780;28;20059;-85
2024/01/21 09:39:02;;;;;;;38.85;9.43;;;;;;;;;;5094048;28;20067;-84
2024/01/21 09:41:38;;;;;;;40.97;10.38;;;;;;;;;;5093221;28;20490;-84
2024/01/21 09:44:08;;;;;;;42.72;10.48;;;;;;;;;;5076910;28;20047;-85
2024/01/21 09:46:39;;;;;;;39.00;9.88;;;;;;;;;;5093898;28;20044;-84
2024/01/21 09:49:12;;;;;;;40.58;10.27;;;;;;;;;;5076682;28;20052;-84
2024/01/21 09:51:44;;;;;;;44.33;10.32;;;;;;;;;;5094037;28;20055;-85
2024/01/21 09:54:14;;;;;;;45.15;11.57;;;;;;;;;;5076245;28;20048;-84
2024/01/21 09:56:46;;;;;;;47.20;11.63;;;;;;;;;;5077058;28;20043;-84
2024/01/21 09:59:17;;;;;;;44.50;12.23;;;;;;;;;;5075456;28;20437;-84
2024/01/21 10:01:47;;;;;;;42.30;11.57;;;;;;;;;;5076863;28;20055;-84
2024/01/21 10:04:20;;;;;;;40.15;12.32;;;;;;;;;;5099093;28;20044;-83
2024/01/21 10:06:53;;;;;;;43.60;12.02;;;;;;;;;;5081981;28;20529;-84
2024/01/21 10:09:24;;;;;;;43.30;12.10;;;;;;;;;;5078779;28;20379;-83
2024/01/21 10:11:59;;;;;;;;;;;;;;;;;;5078015;28;20048;-84
2024/01/21 10:14:31;;;;;;;37.72;10.90;;;;;;;;;;5095572;28;19927;-85
2024/01/21 10:17:02;;;;;;;39.20;12.00;;;;;;;;;;5096652;28;20364;-84
2024/01/21 10:19:34;;;;;;;53.33;13.07;;;;;;;;;;5080166;28;20422;-85
2024/01/21 10:22:10;;;;;;;56.33;13.95;;;;;;;;;;5079050;28;20051;-83
2024/01/21 10:24:42;;;;;;;53.35;14.63;;;;;;;;;;5096274;28;20040;-84
2024/01/21 10:27:15;;;;;;;55.38;13.98;;;;;;;;;;5096292;28;20052;-83
2024/01/21 10:29:46;;;;;;;;;;;;;;;;;;5097861;28;20048;-83
2024/01/21 10:32:18;;;;;;;36.20;11.75;;;;;;;;;;5076525;28;19920;-83
2024/01/21 10:34:52;;;;;;;35.85;10.38;;;;;;;;;;5094622;28;20040;-84
2024/01/21 10:37:24;;;;;;;47.05;13.65;;;;;;;;;;5080021;28;20036;-84
2024/01/21 10:39:56;;;;;;;41.10;11.43;;;;;;;;;;5098799;28;20044;-83
2024/01/21 10:42:27;;;;;;;36.15;10.57;;;;;;;;;;5077173;28;20135;-83
2024/01/21 10:44:58;;;;;;;36.72;11.05;;;;;;;;;;5097093;28;20134;-82
2024/01/21 10:47:32;;;;;;;33.28;10.63;;;;;;;;;;5097318;28;20051;-83
2024/01/21 10:50:05;;;;;;;34.35;11.65;;;;;;;;;;5097539;28;20050;-83
2024/01/21 10:52:37;;;;;;;31.38;10.23;;;;;;;;;;5097152;28;20048;-83
2024/01/21 10:55:08;;;;;;;29.35;10.40;;;;;;;;;;5098034;28;20036;-84
2024/01/21 10:57:39;;;;;;;34.28;9.25;;;;;;;;;;5098065;28;20043;-84
2024/01/21 11:00:10;;;;;;;28.17;9.10;;;;;;;;;;5077878;28;20048;-83
2024/01/21 11:02:41;;;;;;;24.40;8.50;;;;;;;;;;5096888;28;20422;-83
2024/01/21 11:05:11;;;;;;;21.02;7.07;;;;;;;;;;5080229;28;20055;-84
2024/01/21 11:07:44;;;;;;;15.68;5.68;;;;;;;;;;5078466;28;20044;-83
2024/01/21 11:10:18;;;;;;;4.07;1.98;;;;;;;;;;5078136;28;20056;-83
2024/01/21 11:12:56;;;;;;;4.75;1.60;;;;;;;;;;5096188;28;20494;-83
2024/01/21 11:15:28;;;;;;;5.65;2.03;;;;;;;;;;5096577;28;20048;-84
2024/01/21 11:18:09;;;;;;;6.32;2.05;;;;;;;;;;5061090;28;20059;-83
2024/01/21 11:20:40;;;;;;;5.75;1.88;;;;;;;;;;5061078;28;20051;-82
2024/01/21 11:23:16;;;;;;;4.93;1.88;;;;;;;;;;5077341;28;20044;-83
2024/01/21 11:25:51;;;;;;;4.75;2.00;;;;;;;;;;5078169;28;20039;-83
2024/01/21 11:28:28;;;;;;;5.40;1.92;;;;;;;;;;5095541;28;20052;-82
2024/01/21 11:31:04;;;;;;;5.55;1.77;;;;;;;;;;5095926;28;20061;-83
2024/01/21 11:33:36;;;;;;;2.70;1.70;;;;;;;;;;5095719;28;20048;-82
2024/01/21 11:36:10;;;;;;;6.22;1.85;;;;;;;;;;5095755;28;20049;-85
2024/01/21 11:38:43;;;;;;;3.08;1.60;;;;;;;;;;5096387;28;20051;-84
2024/01/21 11:41:15;;;;;;;2.28;1.25;;;;;;;;;;5078804;28;20044;-83
2024/01/21 11:43:47;;;;;;;1.83;1.13;;;;;;;;;;5096739;28;20036;-83
2024/01/21 11:46:18;;;;;;;3.00;1.02;;;;;;;;;;5096326;28;20044;-84
2024/01/21 11:48:48;;;;;;;2.35;1.25;;;;;;;;;;5078299;28;20410;-82
2024/01/21 11:51:18;;;;;;;2.83;1.25;;;;;;;;;;5077403;28;20059;-85
2024/01/21 11:53:48;;;;;;;4.25;1.60;;;;;;;;;;5095335;28;20055;-84
2024/01/21 11:56:18;;;;;;;1.95;1.13;;;;;;;;;;5078789;28;20044;-85
2024/01/21 11:58:49;;;;;;;1.58;0.90;;;;;;;;;;5096003;28;20487;-84
2024/01/21 12:01:22;;;;;;;2.75;0.50;;;;;;;;;;5060374;28;20075;-83
2024/01/21 12:03:56;;;;;;;1.17;0.82;;;;;;;;;;5097964;28;20043;-83
2024/01/21 12:06:27;;;;;;;6.93;1.80;;;;;;;;;;5078558;28;20055;-85
2024/01/21 12:08:57;;;;;;;2.50;0.60;;;;;;;;;;5096817;28;20040;-83
2024/01/21 12:11:35;;;;;;;2.47;0.60;;;;;;;;;;5078741;28;20059;-84
2024/01/21 12:14:11;;;;;;;0.77;0.50;;;;;;;;;;5097063;28;20043;-84
2024/01/21 12:16:43;;;;;;;2.22;0.60;;;;;;;;;;5095010;28;20036;-84
2024/01/21 12:19:13;;;;;;;0.40;0.40;;;;;;;;;;5060567;28;20126;-82
2024/01/21 12:22:11;;;;;;;2.70;0.73;;;;;;;;;;5082557;28;20063;-84
2024/01/21 12:24:43;;;;;;;0.88;0.50;;;;;;;;;;5079338;28;20056;-84
2024/01/21 12:27:13;;;;;;;1.00;0.70;;;;;;;;;;5096891;28;20048;-85
2024/01/21 12:29:45;;;;;;;1.75;0.77;;;;;;;;;;5092245;28;20051;-84
2024/01/21 12:32:16;;;;;;;2.67;0.50;;;;;;;;;;5077843;28;20067;-84
2024/01/21 12:34:47;;;;;;;2.60;0.52;;;;;;;;;;5096281;28;20051;-82
2024/01/21 12:37:27;;;;;;;0.63;0.40;;;;;;;;;;5077488;28;20048;-83
2024/01/21 12:40:00;;;;;;;0.88;0.60;;;;;;;;;;5078297;28;20518;-83
2024/01/21 12:42:32;;;;;;;0.80;0.50;;;;;;;;;;5077763;28;20054;-83
2024/01/21 12:45:02;;;;;;;1.23;0.60;;;;;;;;;;5079179;28;20498;-84
2024/01/21 12:47:33;;;;;;;0.70;0.68;;;;;;;;;;5078623;28;20052;-83
2024/01/21 12:50:03;;;;;;;2.10;0.80;;;;;;;;;;5096785;28;20036;-84
2024/01/21 12:52:33;;;;;;;1.70;1.02;;;;;;;;;;5077139;28;20048;-83
2024/01/21 12:55:06;;;;;;;2.75;0.88;;;;;;;;;;5076399;28;20059;-81
2024/01/21 12:57:36;;;;;;;2.08;0.80;;;;;;;;;;5077161;28;20052;-82
2024/01/21 13:00:08;;;;;;;0.77;0.45;;;;;;;;;;5060960;28;20051;-83
2024/01/21 13:02:43;;;;;;;1.70;0.70;;;;;;;;;;5095346;28;20056;-83
2024/01/21 13:05:15;;;;;;;2.92;0.57;;;;;;;;;;5062891;28;20209;-81
2024/01/21 13:07:46;;;;;;;2.05;0.70;;;;;;;;;;5061504;28;20514;-82
2024/01/21 13:10:15;;;;;;;1.63;0.60;;;;;;;;;;5095014;28;20055;-82
2024/01/21 13:12:47;;;;;;;3.15;0.65;;;;;;;;;;5064596;28;20048;-82
2024/01/21 13:15:18;;;;;;;1.40;0.50;;;;;;;;;;5089749;28;20040;-81
2024/01/21 13:17:49;;;;;;;1.85;0.52;;;;;;;;;;5095384;28;20046;-82
2024/01/21 13:20:20;;;;;;;1.13;0.63;;;;;;;;;;5110321;28;20039;-82
2024/01/21 13:22:51;;;;;;;1.52;0.98;;;;;;;;;;5109961;28;20040;-83
2024/01/21 13:25:23;;;;;;;10.43;4.05;;;;;;;;;;5077002;28;20056;-81
2024/01/21 13:28:06;;;;;;;3.92;1.83;;;;;;;;;;5094726;28;20055;-82
2024/01/21 13:30:43;;;;;;;1.83;0.95;;;;;;;;;;5076635;28;20044;-81
2024/01/21 13:33:16;;;;;;;2.20;0.82;;;;;;;;;;5095618;28;20055;-82
2024/01/21 13:35:47;;;;;;;2.47;1.05;;;;;;;;;;5078231;28;20047;-82
2024/01/21 13:38:19;;;;;;;1.33;0.70;;;;;;;;;;5102477;28;20052;-82
2024/01/21 13:40:50;;;;;;;4.65;0.60;;;;;;;;;;5084785;28;20056;-82
2024/01/21 13:43:21;;;;;;;2.25;0.82;;;;;;;;;;5085408;28;20055;-81
2024/01/21 13:45:51;;;;;;;4.45;0.52;;;;;;;;;;5104794;28;20029;-83
2024/01/21 13:48:21;;;;;;;0.88;0.60;;;;;;;;;;5097686;28;20040;-83
2024/01/21 13:50:52;;;;;;;4.47;0.65;;;;;;;;;;5076397;28;20054;-83
2024/01/21 13:53:22;;;;;;;2.78;0.65;;;;;;;;;;5095232;28;20054;-83
2024/01/21 13:55:52;;;;;;;1.13;0.65;;;;;;;;;;5094156;28;20501;-83
2024/01/21 13:58:23;;;;;;;1.92;0.73;;;;;;;;;;5080721;28;20059;-82
2024/01/21 14:00:54;;;;;;;0.77;0.70;;;;;;;;;;5095504;28;20051;-82
2024/01/21 14:03:27;;;;;;;2.92;1.50;;;;;;;;;;5093348;28;20044;-82
2024/01/21 14:05:57;;;;;;;2.53;0.90;;;;;;;;;;5095674;28;20441;-82
2024/01/21 14:08:29;;;;;;;1.65;0.65;;;;;;;;;;5095005;28;20395;-81
2024/01/21 14:11:00;;;;;;;6.43;2.05;;;;;;;;;;5091471;28;20036;-82
2024/01/21 14:13:29;;;;;;;1.98;0.90;;;;;;;;;;5092822;28;20374;-81
2024/01/21 14:15:59;;;;;;;1.77;1.23;;;;;;;;;;5074522;28;20052;-81
2024/01/21 14:18:29;;;;;;;2.25;0.70;;;;;;;;;;5092531;28;20071;-81
2024/01/21 14:21:01;;;;;;;4.72;2.00;;;;;;;;;;5092558;28;20391;-83
2024/01/21 14:23:31;;;;;;;6.13;2.42;;;;;;;;;;5092967;28;20040;-81
2024/01/21 14:26:09;;;;;;;4.20;1.10;;;;;;;;;;5095022;28;20048;-81
2024/01/21 14:28:42;;;;;;;8.57;3.40;;;;;;;;;;5092633;28;20502;-82
2024/01/21 14:31:16;;;;;;;1.70;0.73;;;;;;;;;;5092781;28;20044;-82
2024/01/21 14:33:48;;;;;;;4.57;2.20;;;;;;;;;;5093149;28;20522;-80
2024/01/21 14:36:18;;;;;;;3.70;0.50;;;;;;;;;;5093863;28;20047;-80
2024/01/21 14:38:48;;;;;;;4.10;0.77;;;;;;;;;;5093442;28;20055;-81
2024/01/21 14:41:18;;;;;;;4.47;0.77;;;;;;;;;;5075119;28;20054;-82
2024/01/21 14:43:51;;;;;;;2.47;1.30;;;;;;;;;;5092803;28;20048;-82
2024/01/21 14:46:22;;;;;;;2.25;0.65;;;;;;;;;;5092676;28;20047;-81
2024/01/21 14:48:52;;;;;;;1.98;0.93;;;;;;;;;;5089761;28;20048;-82
2024/01/21 14:58:25;;;;;;;1.35;0.60;;;;;;;;;;5142316;23;20059;-80
2024/01/21 15:00:55;;;;;;;1.63;0.70;;;;;;;;;;4973403;28;20054;-81
2024/01/21 15:03:25;;;;;;;2.15;0.60;;;;;;;;;;4972948;28;20043;-80
2024/01/21 15:05:56;;;;;;;1.42;0.60;;;;;;;;;;4971577;28;20054;-80
2024/01/21 15:08:28;;;;;;;1.38;0.70;;;;;;;;;;4973279;28;20046;-79
2024/01/21 15:11:00;;;;;;;2.72;0.73;;;;;;;;;;4974131;28;20047;-82